Time;durP1;ratioP1;P1;durP2;ratioP2;P2;SDS_P1;SDS_P2;PMS_P1;PMS_P2;Temp;Humidity;BMP_temperature;BMP_pressure;BME280_temperature;BME280_humidity;BME280_pressure;Samples;Min_cycle;Max_cycle;Signal;HPM_P1;HPM_P2
2022/06/29 00:00:24;;;;;;;3.53;1.57;;;24.60;67.70;;;-142.21;99.49;112049.66;5073407;28;20255;-73
2022/06/29 00:02:52;;;;;;;2.10;1.90;;;24.60;67.60;;;-142.21;99.25;112049.66;5076177;28;20196;-74
2022/06/29 00:05:22;;;;;;;2.30;1.90;;;24.50;67.30;;;-142.21;99.92;112049.66;5079005;28;20236;-74
2022/06/29 00:07:51;;;;;;;2.23;1.80;;;24.50;67.70;;;-142.21;99.98;112049.66;5072267;28;20657;-74
2022/06/29 00:10:21;;;;;;;1.80;1.70;;;24.50;67.80;;;-142.21;100.00;112049.66;5076052;28;20603;-74
2022/06/29 00:12:49;;;;;;;2.50;2.30;;;24.50;68.10;;;-142.21;100.00;112049.66;5071720;28;20204;-75
2022/06/29 00:15:18;;;;;;;2.43;1.90;;;24.50;68.10;;;-142.21;99.83;112049.66;5084104;28;20323;-75
2022/06/29 00:17:45;;;;;;;2.20;1.77;;;24.50;67.90;;;-142.21;100.00;112049.66;5071865;28;20223;-74
2022/06/29 00:20:13;;;;;;;2.87;1.73;;;24.50;68.00;;;-142.21;99.93;112049.66;5071996;28;20335;-76
2022/06/29 00:22:41;;;;;;;2.70;1.60;;;24.40;68.00;;;-142.21;100.00;112049.66;5057389;28;20198;-76
2022/06/29 00:25:11;;;;;;;2.37;1.90;;;24.40;68.20;;;-142.21;99.30;112049.66;5078870;28;20661;-74
2022/06/29 00:27:40;;;;;;;4.40;2.03;;;24.40;67.90;;;-142.21;98.85;112049.66;5092103;28;20235;-75
2022/06/29 00:30:09;;;;;;;2.57;2.20;;;24.30;67.40;;;-142.21;98.96;112049.66;5075162;28;20204;-76
2022/06/29 00:32:37;;;;;;;3.90;1.80;;;24.30;67.40;;;-142.21;99.32;112049.66;5080724;28;20279;-75
2022/06/29 00:35:06;;;;;;;1.87;1.77;;;24.30;67.60;;;-142.21;99.23;112049.66;5084661;28;20203;-74
2022/06/29 00:37:33;;;;;;;1.70;1.60;;;24.30;67.60;;;-142.21;99.29;112049.66;5077536;28;20205;-74
2022/06/29 00:40:00;;;;;;;2.03;1.77;;;24.40;67.60;;;-142.21;99.60;112049.66;5072878;28;20229;-75
2022/06/29 00:42:27;;;;;;;2.83;1.83;;;24.30;67.60;;;-142.21;98.94;112049.66;5090531;28;20208;-75
2022/06/29 00:44:56;;;;;;;2.03;1.93;;;24.40;67.50;;;-142.21;98.48;112049.66;5084118;28;20228;-75
2022/06/29 00:47:23;;;;;;;1.77;1.60;;;24.40;67.40;;;-142.21;98.88;112049.66;5091396;28;20559;-74
2022/06/29 00:49:50;;;;;;;2.20;2.00;;;24.40;67.20;;;-142.21;99.26;112049.66;5074265;28;20254;-75
2022/06/29 00:52:23;;;;;;;1.93;1.83;;;24.40;67.60;;;-142.21;99.61;112049.66;5082811;28;20205;-75
2022/06/29 00:54:56;;;;;;;2.60;1.80;;;24.40;67.80;;;-142.21;99.96;112049.66;5071052;28;20225;-74
2022/06/29 00:57:26;;;;;;;1.87;1.70;;;24.40;68.00;;;-142.21;99.98;112049.66;5083797;28;20192;-75
2022/06/29 00:59:56;;;;;;;1.57;1.47;;;24.40;68.00;;;-142.21;100.00;112049.66;5082912;28;20217;-74
2022/06/29 01:02:28;;;;;;;1.90;1.60;;;24.40;68.10;;;-142.21;100.00;112049.66;5072912;28;20216;-75
2022/06/29 01:04:56;;;;;;;2.23;1.70;;;24.40;68.80;;;-142.21;100.00;112049.66;5081345;28;20228;-75
2022/06/29 01:07:26;;;;;;;2.63;1.70;;;24.40;69.20;;;-142.21;100.00;112049.66;5085900;28;20223;-75
2022/06/29 01:09:53;;;;;;;2.47;1.97;;;24.30;69.60;;;-142.21;100.00;112049.66;5085016;28;20229;-75
2022/06/29 01:12:21;;;;;;;3.30;1.60;;;24.30;69.40;;;-142.21;100.00;112049.66;5087328;28;20228;-74
2022/06/29 01:14:50;;;;;;;3.90;1.90;;;24.20;69.70;;;-142.21;100.00;112049.66;5075560;28;20288;-74
2022/06/29 01:17:22;;;;;;;4.77;1.87;;;24.20;70.50;;;-142.21;100.00;112049.66;5095275;28;20208;-75
2022/06/29 01:19:49;;;;;;;3.87;1.80;;;24.20;70.30;;;-142.21;100.00;112049.66;5093878;28;20231;-75
2022/06/29 01:22:20;;;;;;;4.73;1.63;;;24.20;70.30;;;-142.21;100.00;112049.66;5075164;28;20207;-75
2022/06/29 01:24:48;;;;;;;3.37;1.60;;;24.20;70.50;;;-142.21;100.00;112049.66;5075167;28;20190;-75
2022/06/29 01:27:18;;;;;;;3.27;1.90;;;24.20;70.10;;;-142.21;100.00;112049.66;5054801;28;20627;-74
2022/06/29 01:29:46;;;;;;;3.40;1.90;;;24.10;70.10;;;-142.21;100.00;112049.66;5082486;28;20214;-76
2022/06/29 01:32:13;;;;;;;2.53;1.83;;;24.10;70.10;;;-142.21;100.00;112049.66;5092648;28;20236;-75
2022/06/29 01:34:41;;;;;;;2.20;2.00;;;24.10;70.20;;;-142.21;100.00;112049.66;5094503;28;20205;-75
2022/06/29 01:37:09;;;;;;;1.80;1.70;;;24.10;70.50;;;-142.21;100.00;112049.66;5092828;28;20570;-74
2022/06/29 01:39:38;;;;;;;2.40;1.90;;;24.20;70.60;;;-142.21;100.00;112049.66;5094393;28;20591;-74
2022/06/29 01:42:06;;;;;;;2.90;1.97;;;24.10;70.70;;;-142.21;100.00;112049.66;5074096;28;20310;-73
2022/06/29 01:44:34;;;;;;;3.70;2.00;;;24.10;70.60;;;-142.21;100.00;112049.66;5075159;28;20279;-74
2022/06/29 01:47:02;;;;;;;2.30;1.73;;;24.10;70.60;;;-142.21;100.00;112049.66;5078009;28;20652;-74
2022/06/29 01:49:29;;;;;;;2.00;1.90;;;24.10;70.80;;;-142.21;100.00;112049.66;5094269;28;20246;-74
2022/06/29 01:51:57;;;;;;;2.00;1.80;;;24.10;71.20;;;-142.21;100.00;112049.66;5091462;28;20206;-73
2022/06/29 01:54:24;;;;;;;3.00;2.03;;;24.10;71.00;;;-142.21;100.00;112049.66;5084855;28;20207;-75
2022/06/29 01:56:53;;;;;;;2.83;1.77;;;24.00;71.20;;;-142.21;100.00;112049.66;5079502;28;20196;-73
2022/06/29 01:59:20;;;;;;;4.43;1.90;;;23.90;71.60;;;-142.21;100.00;112049.66;5094674;28;20258;-75
2022/06/29 02:01:48;;;;;;;3.00;2.13;;;23.80;71.60;;;-142.21;100.00;112049.66;5077087;28;20269;-75
2022/06/29 02:04:15;;;;;;;3.20;2.43;;;23.80;71.40;;;-142.21;100.00;112049.66;5074562;28;20212;-73
2022/06/29 02:06:42;;;;;;;2.73;2.03;;;23.80;71.20;;;-142.21;100.00;112049.66;5071315;28;20618;-75
2022/06/29 02:09:10;;;;;;;2.03;1.80;;;23.80;71.10;;;-142.21;100.00;112049.66;5093005;28;20248;-74
2022/06/29 02:11:37;;;;;;;3.30;2.13;;;23.80;70.70;;;-142.21;100.00;112049.66;5075887;28;20295;-74
2022/06/29 02:14:06;;;;;;;3.10;2.30;;;23.90;70.60;;;-142.21;100.00;112049.66;5091986;28;20200;-75
2022/06/29 02:16:33;;;;;;;2.43;2.23;;;23.90;70.30;;;-142.21;100.00;112049.66;5078264;28;20203;-75
2022/06/29 02:19:00;;;;;;;5.13;2.10;;;23.90;70.30;;;-142.21;100.00;112049.66;5073035;28;20208;-74
2022/06/29 02:21:27;;;;;;;2.40;2.20;;;23.90;70.20;;;-142.21;100.00;112049.66;5088361;28;20235;-74
2022/06/29 02:23:55;;;;;;;2.17;1.97;;;24.00;70.40;;;-142.21;100.00;112049.66;5092812;28;20728;-73
2022/06/29 02:26:24;;;;;;;3.87;1.80;;;24.00;71.40;;;-142.21;100.00;112049.66;5076630;28;20712;-74
2022/06/29 02:28:54;;;;;;;2.20;2.00;;;24.00;70.80;;;-142.21;100.00;112049.66;5073999;28;20218;-74
2022/06/29 02:36:52;;;;;;;3.43;2.03;;;24.10;70.80;;;-142.21;100.00;112049.66;5088755;28;20199;-75
2022/06/29 02:39:19;;;;;;;2.20;2.00;;;24.10;70.50;;;-142.21;100.00;112049.66;5073470;28;20303;-74
2022/06/29 02:41:46;;;;;;;2.57;1.90;;;24.10;70.50;;;-142.21;100.00;112049.66;5036654;28;20576;-74
2022/06/29 02:44:14;;;;;;;3.47;2.10;;;24.10;70.30;;;-142.21;100.00;112049.66;5060401;28;20211;-74
2022/06/29 02:46:42;;;;;;;3.33;2.10;;;24.10;70.40;;;-142.21;100.00;112049.66;5090207;28;20292;-74
2022/06/29 02:49:09;;;;;;;2.80;2.13;;;24.10;70.70;;;-142.21;100.00;112049.66;5077858;28;20749;-75
2022/06/29 02:51:36;;;;;;;2.70;2.40;;;23.90;70.80;;;-142.21;100.00;112049.66;5074526;28;20202;-74
2022/06/29 02:54:04;;;;;;;2.67;2.27;;;23.90;71.00;;;-142.21;100.00;112049.66;5083973;28;20392;-74
2022/06/29 02:56:31;;;;;;;2.30;2.10;;;23.90;71.10;;;-142.21;100.00;112049.66;5074054;28;20208;-74
2022/06/29 02:58:58;;;;;;;4.00;2.17;;;24.00;72.30;;;-142.21;100.00;112049.66;5078895;28;20287;-74
2022/06/29 03:01:25;;;;;;;3.80;2.20;;;24.00;71.40;;;-142.21;100.00;112049.66;5088592;28;20233;-75
2022/06/29 03:03:55;;;;;;;2.90;1.93;;;24.00;71.10;;;-142.21;100.00;112049.66;5072988;28;20290;-74
2022/06/29 03:06:22;;;;;;;3.90;2.60;;;24.00;71.00;;;-142.21;100.00;112049.66;5088032;28;20679;-75
2022/06/29 03:08:49;;;;;;;3.23;2.20;;;24.00;71.00;;;-142.21;100.00;112049.66;5090898;28;20232;-75
2022/06/29 03:11:16;;;;;;;2.87;2.27;;;24.00;71.00;;;-142.21;100.00;112049.66;5090242;28;20199;-74
2022/06/29 03:13:43;;;;;;;2.30;2.10;;;24.00;71.10;;;-142.21;100.00;112049.66;5072665;28;20724;-75
2022/06/29 03:16:10;;;;;;;3.13;2.17;;;24.00;71.00;;;-142.21;100.00;112049.66;5085699;28;20694;-74
2022/06/29 03:18:37;;;;;;;3.20;2.20;;;24.10;70.70;;;-142.21;100.00;112049.66;5093247;28;20210;-75
2022/06/29 03:21:06;;;;;;;2.30;2.10;;;24.10;70.80;;;-142.21;100.00;112049.66;5084359;28;20292;-73
2022/06/29 03:23:34;;;;;;;2.70;2.00;;;24.10;70.80;;;-142.21;100.00;112049.66;5087752;28;20280;-75
2022/06/29 03:26:01;;;;;;;2.70;2.50;;;24.00;70.50;;;-142.21;100.00;112049.66;5080734;28;20720;-75
2022/06/29 03:28:28;;;;;;;2.33;2.13;;;24.00;71.20;;;-142.21;100.00;112049.66;5055663;28;20299;-75
2022/06/29 03:30:56;;;;;;;2.00;1.83;;;24.10;71.00;;;-142.21;100.00;112049.66;5080107;28;20207;-75
2022/06/29 03:33:23;;;;;;;2.60;2.40;;;24.10;71.00;;;-142.21;100.00;112049.66;5072421;28;20293;-75
2022/06/29 03:35:51;;;;;;;3.30;2.60;;;24.00;70.90;;;-142.21;100.00;112049.66;5075112;28;20657;-75
2022/06/29 03:38:20;;;;;;;3.53;2.57;;;24.00;71.20;;;-142.21;100.00;112049.66;5091188;28;20302;-73
2022/06/29 03:40:47;;;;;;;2.10;1.97;;;24.00;70.60;;;-142.21;100.00;112049.66;5084184;28;20221;-74
2022/06/29 03:43:14;;;;;;;3.37;2.27;;;24.00;71.00;;;-142.21;100.00;112049.66;5072852;28;20208;-75
2022/06/29 03:45:43;;;;;;;2.77;2.10;;;24.10;71.50;;;-142.21;100.00;112049.66;5082053;28;20314;-75
2022/06/29 03:48:10;;;;;;;2.30;2.10;;;24.00;71.90;;;-142.21;100.00;112049.66;5092098;28;20212;-75
2022/06/29 03:50:37;;;;;;;2.30;2.10;;;24.00;72.40;;;-142.21;100.00;112049.66;5088780;28;20670;-74
2022/06/29 03:53:04;;;;;;;2.30;2.10;;;24.00;72.60;;;-142.21;100.00;112049.66;5073774;28;20533;-75
2022/06/29 03:55:33;;;;;;;2.33;2.10;;;24.00;72.70;;;-142.21;100.00;112049.66;5080368;28;20200;-74
2022/06/29 03:58:00;;;;;;;3.10;2.20;;;24.00;73.60;;;-142.21;100.00;112049.66;5091687;28;20236;-75
2022/06/29 04:00:27;;;;;;;2.30;2.10;;;24.10;73.40;;;-142.21;100.00;112049.66;5084250;28;20655;-75
2022/06/29 04:02:55;;;;;;;2.13;1.93;;;24.10;73.20;;;-142.21;100.00;112049.66;5083486;28;20245;-74
2022/06/29 04:05:22;;;;;;;2.80;2.03;;;24.00;73.10;;;-142.21;100.00;112049.66;5077853;28;20710;-75
2022/06/29 04:07:49;;;;;;;2.17;1.97;;;24.00;72.80;;;-142.21;100.00;112049.66;5071885;28;20254;-74
2022/06/29 04:10:16;;;;;;;2.97;2.30;;;24.00;73.10;;;-142.21;100.00;112049.66;5082231;28;20275;-74
2022/06/29 04:12:45;;;;;;;2.47;2.20;;;24.00;72.90;;;-142.21;100.00;112049.66;5077779;28;20275;-75
2022/06/29 04:15:15;;;;;;;2.40;2.20;;;24.00;73.00;;;-142.21;100.00;112049.66;5073135;28;20204;-75
2022/06/29 04:17:42;;;;;;;2.63;2.40;;;24.00;73.10;;;-142.21;100.00;112049.66;5081937;28;20193;-75
2022/06/29 04:21:05;;;;;;;2.20;2.00;;;24.00;73.10;;;-142.21;100.00;112049.66;5071266;28;20263;-73
2022/06/29 04:23:02;;;;;;;2.50;2.13;;;23.90;73.30;;;-142.21;100.00;112049.66;5071098;28;20216;-75
2022/06/29 04:25:30;;;;;;;2.43;2.23;;;23.90;73.60;;;-142.21;100.00;112049.66;5064564;28;20214;-75
2022/06/29 04:27:58;;;;;;;3.23;2.40;;;23.90;73.50;;;-142.21;100.00;112049.66;5071948;28;20208;-75
2022/06/29 04:30:26;;;;;;;3.77;2.33;;;23.90;72.90;;;-142.21;100.00;112049.66;5073062;28;20287;-75
2022/06/29 04:32:53;;;;;;;2.60;2.40;;;24.00;73.20;;;-142.21;100.00;112049.66;5078587;28;20672;-74
2022/06/29 04:35:20;;;;;;;2.70;2.33;;;24.00;72.10;;;-142.21;100.00;112049.66;5089843;28;20209;-75
2022/06/29 04:37:48;;;;;;;2.63;2.40;;;24.00;71.30;;;-142.21;100.00;112049.66;5077723;28;20196;-74
2022/06/29 04:40:15;;;;;;;2.60;2.40;;;24.00;70.70;;;-142.21;100.00;112049.66;5081700;28;20204;-74
2022/06/29 04:42:42;;;;;;;4.40;3.00;;;23.90;70.70;;;-142.21;100.00;112049.66;5094422;28;20314;-75
2022/06/29 04:46:19;;;;;;;6.33;3.10;;;24.00;70.70;;;-142.21;100.00;112049.66;5088367;28;20218;-74
2022/06/29 04:48:00;;;;;;;7.03;3.83;;;24.00;71.70;;;-142.21;100.00;112049.66;5095424;28;20214;-74
2022/06/29 04:50:28;;;;;;;4.27;3.10;;;24.00;71.40;;;-142.21;100.00;112049.66;5085755;28;20261;-74
2022/06/29 04:52:56;;;;;;;6.40;3.50;;;24.00;71.80;;;-142.21;100.00;112049.66;5079925;28;20202;-74
2022/06/29 04:55:28;;;;;;;3.90;2.77;;;24.00;72.00;;;-142.21;100.00;112049.66;5086728;28;20295;-75
2022/06/29 04:57:55;;;;;;;4.43;2.70;;;24.00;72.20;;;-142.21;100.00;112049.66;5079179;28;20220;-75
2022/06/29 05:00:24;;;;;;;2.87;2.57;;;24.00;72.60;;;-142.21;100.00;112049.66;5094669;28;20279;-75
2022/06/29 05:02:52;;;;;;;4.20;2.70;;;24.00;72.90;;;-142.21;100.00;112049.66;5081618;28;20226;-74
2022/06/29 05:05:19;;;;;;;2.50;2.30;;;24.00;73.60;;;-142.21;100.00;112049.66;5076171;28;20232;-74
2022/06/29 05:07:47;;;;;;;2.37;2.17;;;24.00;74.70;;;-142.21;100.00;112049.66;5078769;28;20624;-75
2022/06/29 05:10:15;;;;;;;6.00;2.80;;;23.90;75.10;;;-142.21;100.00;112049.66;5094333;28;20232;-75
2022/06/29 05:12:43;;;;;;;3.93;2.67;;;23.90;75.40;;;-142.21;100.00;112049.66;5082036;28;20279;-74
2022/06/29 05:15:11;;;;;;;4.23;2.40;;;24.00;75.70;;;-142.21;100.00;112049.66;5075784;28;20232;-75
2022/06/29 05:17:40;;;;;;;3.20;2.47;;;24.10;75.50;;;-142.21;100.00;112049.66;5074881;28;20280;-74
2022/06/29 05:20:09;;;;;;;3.03;2.23;;;24.10;75.00;;;-142.21;100.00;112049.66;5081672;28;20547;-74
2022/06/29 05:22:37;;;;;;;13.93;2.93;;;24.20;72.80;;;-142.21;100.00;112049.66;5076633;28;20221;-74
2022/06/29 05:25:05;;;;;;;2.77;2.33;;;24.30;72.00;;;-142.21;100.00;112049.66;5075534;28;20265;-74
2022/06/29 05:27:33;;;;;;;3.67;2.40;;;24.30;71.10;;;-142.21;96.77;112049.66;5074940;28;20222;-74
2022/06/29 05:30:01;;;;;;;2.67;2.20;;;24.30;68.30;;;-142.21;95.34;112049.66;5075222;28;20298;-76
2022/06/29 05:32:28;;;;;;;3.10;2.17;;;24.30;66.80;;;-142.21;94.36;112049.66;5075758;28;20288;-73
2022/06/29 05:34:56;;;;;;;1.93;1.80;;;24.30;66.00;;;-142.21;94.12;112049.66;5076070;28;20283;-73
2022/06/29 05:37:24;;;;;;;3.80;2.37;;;24.30;65.70;;;-142.21;96.47;112049.66;5090876;28;20292;-74
2022/06/29 05:39:51;;;;;;;1.70;1.60;;;24.30;66.70;;;-142.21;96.45;112049.66;5094001;28;20214;-74
2022/06/29 05:42:18;;;;;;;5.03;2.63;;;24.30;66.50;;;-142.21;95.87;112049.66;5084910;28;20307;-78
2022/06/29 05:44:45;;;;;;;4.20;2.70;;;24.30;66.40;;;-142.21;94.91;112049.66;5074179;28;20270;-78
2022/06/29 05:47:14;;;;;;;3.90;2.27;;;24.40;66.00;;;-142.21;95.49;112049.66;5073710;28;20203;-79
2022/06/29 05:49:42;;;;;;;2.37;2.17;;;24.40;66.40;;;-142.21;92.02;112049.66;5085109;28;20702;-78
2022/06/29 05:52:11;;;;;;;3.57;1.97;;;24.40;64.30;;;-142.21;91.73;112049.66;5090860;28;20231;-78
2022/06/29 05:54:38;;;;;;;2.10;2.00;;;24.40;63.70;;;-142.21;92.78;112049.66;5073636;28;20231;-76
2022/06/29 05:57:06;;;;;;;1.97;1.87;;;24.40;64.00;;;-142.21;95.19;112049.66;5074992;28;20291;-77
2022/06/29 05:59:34;;;;;;;2.73;2.00;;;24.50;65.20;;;-142.21;94.67;112049.66;5074253;28;20193;-78
2022/06/29 06:02:01;;;;;;;2.33;2.13;;;24.50;65.20;;;-142.21;96.18;112049.66;5073324;28;20256;-77
2022/06/29 06:04:28;;;;;;;3.47;1.97;;;24.60;65.60;;;-142.21;94.63;112049.66;5071969;28;20295;-77
2022/06/29 06:06:56;;;;;;;3.97;2.23;;;24.70;65.80;;;-142.21;89.35;112049.66;5075148;28;20621;-78
2022/06/29 06:09:27;;;;;;;2.80;2.30;;;24.60;62.40;;;-142.21;87.27;112049.66;5073135;28;20232;-76
2022/06/29 06:11:55;;;;;;;4.10;2.00;;;24.60;61.30;;;-142.21;87.52;112049.66;5082378;28;20193;-77
2022/06/29 06:14:22;;;;;;;3.23;2.30;;;24.70;61.40;;;-142.21;86.89;112049.66;5080975;28;20569;-77
2022/06/29 06:16:50;;;;;;;3.17;2.10;;;24.70;61.10;;;-142.21;86.52;112049.66;5073475;28;20635;-77
2022/06/29 06:19:17;;;;;;;3.47;2.03;;;24.80;61.10;;;-142.21;85.95;112049.66;5073227;28;20227;-76
2022/06/29 06:21:44;;;;;;;3.77;1.97;;;24.90;60.80;;;-142.21;86.22;112049.66;5074022;28;20264;-77
2022/06/29 06:24:12;;;;;;;4.23;1.87;;;24.90;60.40;;;-142.21;85.78;112049.66;5072836;28;20673;-79
2022/06/29 06:26:40;;;;;;;2.70;1.70;;;25.00;60.50;;;-142.21;85.07;112049.66;5073867;28;20284;-75
2022/06/29 06:29:07;;;;;;;2.43;2.10;;;25.00;60.00;;;-142.21;84.95;112049.66;5073176;28;20263;-77
2022/06/29 06:31:36;;;;;;;2.90;1.90;;;25.10;60.00;;;-142.21;83.76;112049.66;5073630;28;20240;-78
2022/06/29 06:34:03;;;;;;;3.63;2.20;;;25.10;59.50;;;-142.21;84.84;112049.66;5073834;28;20216;-76
2022/06/29 06:36:30;;;;;;;3.17;2.17;;;25.10;60.10;;;-142.21;83.23;112049.66;5072776;28;20217;-77
2022/06/29 06:38:58;;;;;;;2.87;2.07;;;25.20;59.60;;;-142.21;82.09;112049.66;5073458;28;20237;-77
2022/06/29 06:41:25;;;;;;;2.67;2.00;;;25.30;58.90;;;-142.21;82.57;112049.66;5073106;28;20205;-78
2022/06/29 06:43:57;;;;;;;4.50;2.33;;;25.30;59.20;;;-142.21;83.71;112049.66;5073471;28;20216;-79
2022/06/29 06:46:25;;;;;;;5.37;2.23;;;25.40;59.60;;;-142.21;83.96;112049.66;5073073;28;20189;-77
2022/06/29 06:48:53;;;;;;;3.23;2.93;;;25.40;59.50;;;-142.21;83.52;112049.66;5073174;28;20247;-76
2022/06/29 06:51:23;;;;;;;2.43;2.23;;;25.50;59.20;;;-142.21;83.30;112049.66;5072639;28;20212;-79
2022/06/29 06:53:50;;;;;;;3.13;2.83;;;25.60;59.10;;;-142.21;84.73;112049.66;5073549;28;20209;-78
2022/06/29 06:56:18;;;;;;;2.83;2.57;;;25.70;59.40;;;-142.21;85.07;112049.66;5072891;28;20634;-79
2022/06/29 06:58:46;;;;;;;2.97;2.77;;;25.70;59.70;;;-142.21;85.49;112049.66;5072909;28;20608;-77
2022/06/29 07:01:14;;;;;;;4.13;2.30;;;25.80;60.10;;;-142.21;86.76;112049.66;5073788;28;20260;-78
2022/06/29 07:03:41;;;;;;;4.03;2.80;;;25.90;60.50;;;-142.21;84.18;112049.66;5073124;28;20225;-77
2022/06/29 07:06:11;;;;;;;2.70;2.50;;;25.90;59.70;;;-142.21;84.99;112049.66;5072639;28;20298;-77
2022/06/29 07:08:40;;;;;;;4.10;2.90;;;25.90;59.90;;;-142.21;85.94;112049.66;5072531;28;20320;-77
2022/06/29 07:11:08;;;;;;;3.73;3.10;;;26.10;60.00;;;-142.21;86.05;112049.66;5073118;28;20240;-78
2022/06/29 07:13:36;;;;;;;4.13;3.30;;;26.10;60.20;;;-142.21;84.65;112049.66;5072768;28;20251;-78
2022/06/29 07:16:06;;;;;;;3.97;3.20;;;26.00;59.90;;;-142.21;84.97;112049.66;5072919;28;20205;-78
2022/06/29 07:18:35;;;;;;;4.67;2.70;;;26.00;60.40;;;-142.21;86.14;112049.66;5072399;28;20201;-74
2022/06/29 07:21:03;;;;;;;3.57;2.80;;;26.20;60.70;;;-142.21;84.83;112049.66;5072543;28;20252;-78
2022/06/29 07:23:30;;;;;;;2.87;2.60;;;26.30;60.20;;;-142.21;84.97;112049.66;5072142;28;20233;-74
2022/06/29 07:25:58;;;;;;;3.37;3.07;;;26.40;60.00;;;-142.21;86.16;112049.66;5072441;28;20197;-77
2022/06/29 07:28:26;;;;;;;3.40;2.80;;;26.50;60.10;;;-142.21;84.70;112049.66;5071913;28;20566;-77
2022/06/29 07:30:53;;;;;;;5.03;3.17;;;26.50;59.90;;;-142.21;85.99;112049.66;5072778;28;20240;-79
2022/06/29 07:33:20;;;;;;;5.10;2.87;;;26.60;60.50;;;-142.21;86.39;112049.66;5071807;28;20293;-78
2022/06/29 07:35:49;;;;;;;2.80;2.60;;;26.80;61.10;;;-142.21;84.09;112049.66;5072853;28;20205;-77
2022/06/29 07:38:18;;;;;;;3.70;3.30;;;26.90;59.60;;;-142.21;84.05;112049.66;5071678;28;20205;-79
2022/06/29 07:40:45;;;;;;;3.60;3.30;;;27.00;59.50;;;-142.21;83.49;112049.66;5072752;28;20566;-77
2022/06/29 07:43:12;;;;;;;3.43;3.10;;;27.00;58.90;;;-142.21;85.16;112049.66;5071734;28;20337;-75
2022/06/29 07:45:40;;;;;;;3.20;2.90;;;26.90;59.50;;;-142.21;85.86;112049.66;5072530;28;20209;-77
2022/06/29 07:48:08;;;;;;;3.00;2.80;;;27.00;59.80;;;-142.21;85.11;112049.66;5072183;28;20226;-76
2022/06/29 07:50:36;;;;;;;2.70;2.50;;;27.00;59.50;;;-142.21;85.06;112049.66;5072414;28;20231;-75
2022/06/29 07:53:04;;;;;;;4.00;3.13;;;27.10;59.60;;;-142.21;86.08;112049.66;5071982;28;20240;-77
2022/06/29 07:55:32;;;;;;;5.93;2.70;;;27.30;59.80;;;-142.21;83.20;112049.66;5071450;28;20201;-76
2022/06/29 07:57:59;;;;;;;3.90;3.30;;;27.50;58.90;;;-142.21;82.55;112049.66;5071792;28;20662;-75
2022/06/29 08:00:26;;;;;;;3.33;3.03;;;27.40;58.70;;;-142.21;85.21;112049.66;5071754;28;20237;-77
2022/06/29 08:02:53;;;;;;;2.97;2.77;;;27.40;59.50;;;-142.21;86.90;112049.66;5072288;28;20264;-77
2022/06/29 08:05:22;;;;;;;3.17;2.93;;;27.50;59.90;;;-142.21;83.13;112049.66;5071727;28;20285;-76
2022/06/29 08:07:49;;;;;;;3.40;3.10;;;27.50;58.80;;;-142.21;84.13;112049.66;5072113;28;20571;-76
2022/06/29 08:10:19;;;;;;;4.43;3.17;;;27.40;59.10;;;-142.21;84.36;112049.66;5071246;28;20280;-75
2022/06/29 08:12:46;;;;;;;6.10;3.17;;;27.50;59.30;;;-142.21;85.66;112049.66;5071871;28;20256;-76
2022/06/29 08:15:15;;;;;;;3.40;3.10;;;27.40;59.60;;;-142.21;84.05;112049.66;5071241;28;20206;-78
2022/06/29 08:17:42;;;;;;;3.27;2.93;;;27.40;59.20;;;-142.21;84.32;112049.66;5071339;28;20206;-77
2022/06/29 08:20:11;;;;;;;4.43;2.93;;;27.50;59.30;;;-142.21;85.22;112049.66;5071588;28;20221;-80
2022/06/29 08:22:38;;;;;;;3.30;2.97;;;27.60;59.60;;;-142.21;85.68;112049.66;5033093;28;20739;-78
2022/06/29 08:25:06;;;;;;;3.17;2.87;;;27.60;59.50;;;-142.21;84.79;112049.66;5056712;28;20233;-78
2022/06/29 08:27:35;;;;;;;3.43;3.13;;;27.70;59.10;;;-142.21;84.16;112049.66;5071152;28;20211;-76
2022/06/29 08:30:02;;;;;;;3.23;2.93;;;27.70;58.90;;;-142.21;85.11;112049.66;5071980;28;20259;-76
2022/06/29 08:32:30;;;;;;;3.10;2.80;;;27.70;59.00;;;-142.21;84.90;112049.66;5071672;28;20203;-78
2022/06/29 08:34:59;;;;;;;3.20;2.90;;;27.80;59.00;;;-142.21;82.82;112049.66;5072132;28;20215;-79
2022/06/29 08:37:27;;;;;;;3.50;3.20;;;27.80;58.30;;;-142.21;82.83;112049.66;5071182;28;20303;-79
2022/06/29 08:39:54;;;;;;;3.70;2.50;;;27.80;58.30;;;-142.21;81.26;112049.66;5071403;28;20249;-78
2022/06/29 08:42:24;;;;;;;6.23;2.90;;;27.80;57.90;;;-142.21;81.47;112049.66;5070652;28;20225;-78
2022/06/29 08:44:53;;;;;;;3.40;3.10;;;27.90;58.00;;;-142.21;81.87;112049.66;5071564;28;20713;-76
2022/06/29 08:47:20;;;;;;;3.33;2.97;;;28.00;58.70;;;-142.21;83.37;112049.66;5071044;28;20298;-78
2022/06/29 08:49:47;;;;;;;3.27;2.97;;;28.10;58.70;;;-142.21;79.95;112049.66;5070103;28;20217;-77
2022/06/29 08:52:19;;;;;;;3.30;2.70;;;28.10;57.80;;;-142.21;81.66;112049.66;5070830;28;20631;-78
2022/06/29 08:54:48;;;;;;;3.20;2.90;;;28.20;58.20;;;-142.21;80.29;112049.66;5071158;28;20604;-77
2022/06/29 08:57:17;;;;;;;4.80;2.63;;;28.20;57.90;;;-142.21;78.49;112049.66;5071217;28;20291;-77
2022/06/29 08:59:45;;;;;;;4.80;3.30;;;28.20;57.30;;;-142.21;73.08;112049.66;5071758;28;20273;-78
2022/06/29 09:02:14;;;;;;;4.07;2.90;;;28.10;56.00;;;-142.21;73.15;112049.66;5071236;28;20207;-78
2022/06/29 09:04:42;;;;;;;3.07;2.80;;;28.10;56.10;;;-142.21;75.19;112049.66;5071586;28;20633;-78
2022/06/29 09:07:09;;;;;;;3.33;2.90;;;28.10;56.30;;;-142.21;73.17;112049.66;5071634;28;20290;-78
2022/06/29 09:10:02;;;;;;;2.80;2.60;;;28.10;56.00;;;-142.21;76.33;112049.66;5070527;28;20298;-78
2022/06/29 09:12:31;;;;;;;4.70;3.10;;;28.20;56.70;;;-142.21;75.58;112049.66;5070755;28;20753;-76
2022/06/29 09:14:59;;;;;;;3.30;2.80;;;28.30;56.60;;;-142.21;74.05;112049.66;5071510;28;20273;-77
2022/06/29 09:17:31;;;;;;;3.80;2.90;;;28.30;55.90;;;-142.21;76.22;112049.66;5070948;28;20210;-77
2022/06/29 09:19:58;;;;;;;3.30;3.00;;;28.30;56.50;;;-142.21;74.92;112049.66;5071106;28;20312;-78
2022/06/29 09:22:25;;;;;;;2.90;2.70;;;28.50;56.30;;;-142.21;70.29;112049.66;5070641;28;20207;-78
2022/06/29 09:24:53;;;;;;;3.30;2.80;;;28.60;55.10;;;-142.21;70.66;112049.66;5070820;28;20193;-76
2022/06/29 09:27:20;;;;;;;3.83;2.90;;;28.60;55.10;;;-142.21;69.19;112049.66;5070938;28;20246;-77
2022/06/29 09:29:47;;;;;;;2.83;2.63;;;28.70;54.90;;;-142.21;70.38;112049.66;5072609;28;20207;-77
2022/06/29 09:32:19;;;;;;;3.00;2.73;;;28.80;55.00;;;-142.21;68.68;112049.66;5075027;28;20237;-78
2022/06/29 09:34:50;;;;;;;3.20;3.00;;;29.00;54.90;;;-142.21;66.26;112049.66;5074652;28;20782;-77
2022/06/29 09:37:20;;;;;;;3.60;3.07;;;29.10;53.60;;;-142.21;67.76;112049.66;5074215;28;20192;-75
2022/06/29 09:39:49;;;;;;;3.40;2.80;;;29.10;54.30;;;-142.21;67.89;112049.66;5074216;28;20294;-78
2022/06/29 09:42:18;;;;;;;3.47;3.17;;;29.10;54.20;;;-142.21;68.05;112049.66;5074229;28;20253;-77
2022/06/29 09:44:47;;;;;;;3.60;2.73;;;29.00;54.30;;;-142.21;71.93;112049.66;5074818;28;20257;-78
2022/06/29 09:47:16;;;;;;;2.90;2.60;;;29.00;55.30;;;-142.21;69.98;112049.66;5074563;28;20326;-77
2022/06/29 09:49:52;;;;;;;3.00;2.70;;;29.10;55.00;;;-142.21;69.56;112049.66;5074411;28;20249;-76
2022/06/29 09:52:21;;;;;;;3.27;2.70;;;29.20;54.90;;;-142.21;67.72;112049.66;5074059;28;20237;-77
2022/06/29 09:54:54;;;;;;;4.30;3.23;;;29.20;54.40;;;-142.21;68.69;112049.66;5074383;28;20581;-78
2022/06/29 09:57:25;;;;;;;2.87;2.50;;;29.30;54.50;;;-142.21;66.59;112049.66;5073846;28;20193;-77
2022/06/29 10:02:43;;;;;;;3.00;2.70;;;29.40;53.80;;;-142.21;68.12;112049.66;5073517;28;20219;-76
2022/06/29 10:05:15;;;;;;;3.10;2.90;;;29.40;54.30;;;-142.21;60.13;112049.66;5074148;28;20207;-78
2022/06/29 10:07:44;;;;;;;3.23;2.60;;;29.40;51.60;;;-142.21;62.39;112049.66;5073164;28;20254;-75
2022/06/29 10:10:15;;;;;;;4.83;2.90;;;29.30;52.80;;;-142.21;68.41;112049.66;5073880;28;20271;-77